sensor_id;sensor_type;location;lat;lon;timestamp;P1;durP1;ratioP1;P2;durP2;ratioP2
34405;SDS011;20658;45.630;8.886;2023-03-01T00:00:00;50.13;;;31.60;;
34405;SDS011;20658;45.630;8.886;2023-03-01T00:02:38;49.47;;;32.53;;
34405;SDS011;20658;45.630;8.886;2023-03-01T00:05:11;54.20;;;33.05;;
34405;SDS011;20658;45.630;8.886;2023-03-01T00:07:44;47.78;;;31.48;;
34405;SDS011;20658;45.630;8.886;2023-03-01T00:10:17;50.40;;;31.73;;
34405;SDS011;20658;45.630;8.886;2023-03-01T00:12:51;55.95;;;34.70;;
34405;SDS011;20658;45.630;8.886;2023-03-01T00:15:24;52.28;;;32.85;;
34405;SDS011;20658;45.630;8.886;2023-03-01T00:17:59;52.78;;;33.65;;
34405;SDS011;20658;45.630;8.886;2023-03-01T00:20:32;50.58;;;32.75;;
34405;SDS011;20658;45.630;8.886;2023-03-01T00:23:05;50.03;;;34.50;;
34405;SDS011;20658;45.630;8.886;2023-03-01T00:25:34;50.92;;;32.05;;
34405;SDS011;20658;45.630;8.886;2023-03-01T00:28:15;54.72;;;34.75;;
34405;SDS011;20658;45.630;8.886;2023-03-01T00:30:48;49.90;;;32.90;;
34405;SDS011;20658;45.630;8.886;2023-03-01T00:33:23;51.28;;;32.22;;
34405;SDS011;20658;45.630;8.886;2023-03-01T00:35:57;51.58;;;33.95;;
34405;SDS011;20658;45.630;8.886;2023-03-01T00:38:34;49.70;;;32.63;;
34405;SDS011;20658;45.630;8.886;2023-03-01T00:41:09;50.05;;;31.73;;
34405;SDS011;20658;45.630;8.886;2023-03-01T00:43:45;46.17;;;31.52;;
34405;SDS011;20658;45.630;8.886;2023-03-01T00:46:20;50.05;;;32.13;;
34405;SDS011;20658;45.630;8.886;2023-03-01T00:48:57;48.30;;;32.42;;
34405;SDS011;20658;45.630;8.886;2023-03-01T00:51:33;51.67;;;33.67;;
34405;SDS011;20658;45.630;8.886;2023-03-01T00:54:07;60.40;;;37.10;;
34405;SDS011;20658;45.630;8.886;2023-03-01T00:56:36;60.38;;;36.10;;
34405;SDS011;20658;45.630;8.886;2023-03-01T00:59:09;56.58;;;36.15;;
34405;SDS011;20658;45.630;8.886;2023-03-01T01:01:43;59.08;;;35.88;;
34405;SDS011;20658;45.630;8.886;2023-03-01T01:04:17;59.30;;;35.05;;
34405;SDS011;20658;45.630;8.886;2023-03-01T01:06:51;52.13;;;32.83;;
34405;SDS011;20658;45.630;8.886;2023-03-01T01:09:24;51.75;;;34.55;;
34405;SDS011;20658;45.630;8.886;2023-03-01T01:11:58;53.25;;;34.92;;
34405;SDS011;20658;45.630;8.886;2023-03-01T01:14:26;53.67;;;34.13;;
34405;SDS011;20658;45.630;8.886;2023-03-01T01:17:00;52.80;;;34.85;;
34405;SDS011;20658;45.630;8.886;2023-03-01T01:19:34;56.95;;;33.22;;
34405;SDS011;20658;45.630;8.886;2023-03-01T01:22:03;47.58;;;32.13;;
34405;SDS011;20658;45.630;8.886;2023-03-01T01:24:36;54.05;;;34.40;;
34405;SDS011;20658;45.630;8.886;2023-03-01T01:27:04;52.85;;;32.55;;
34405;SDS011;20658;45.630;8.886;2023-03-01T01:29:38;49.97;;;31.85;;
34405;SDS011;20658;45.630;8.886;2023-03-01T01:32:13;55.33;;;34.92;;
34405;SDS011;20658;45.630;8.886;2023-03-01T01:34:47;52.08;;;33.08;;
34405;SDS011;20658;45.630;8.886;2023-03-01T01:37:21;50.70;;;32.45;;
34405;SDS011;20658;45.630;8.886;2023-03-01T01:40:00;53.47;;;33.30;;
34405;SDS011;20658;45.630;8.886;2023-03-01T01:42:36;54.85;;;33.50;;
34405;SDS011;20658;45.630;8.886;2023-03-01T01:45:26;55.83;;;35.50;;
34405;SDS011;20658;45.630;8.886;2023-03-01T01:48:04;52.88;;;32.47;;
34405;SDS011;20658;45.630;8.886;2023-03-01T01:50:45;52.38;;;34.55;;
34405;SDS011;20658;45.630;8.886;2023-03-01T01:53:26;51.08;;;34.83;;
34405;SDS011;20658;45.630;8.886;2023-03-01T01:56:00;52.65;;;33.20;;
34405;SDS011;20658;45.630;8.886;2023-03-01T01:58:35;52.65;;;33.05;;
34405;SDS011;20658;45.630;8.886;2023-03-01T02:01:09;50.60;;;32.22;;
34405;SDS011;20658;45.630;8.886;2023-03-01T02:03:44;54.30;;;34.47;;
34405;SDS011;20658;45.630;8.886;2023-03-01T02:06:23;47.58;;;30.27;;
34405;SDS011;20658;45.630;8.886;2023-03-01T02:09:02;53.35;;;33.42;;
34405;SDS011;20658;45.630;8.886;2023-03-01T02:11:39;57.45;;;34.13;;
34405;SDS011;20658;45.630;8.886;2023-03-01T02:14:14;76.38;;;43.85;;
34405;SDS011;20658;45.630;8.886;2023-03-01T02:16:48;64.32;;;38.55;;
34405;SDS011;20658;45.630;8.886;2023-03-01T02:19:26;61.10;;;37.45;;
34405;SDS011;20658;45.630;8.886;2023-03-01T02:22:16;53.38;;;34.20;;
34405;SDS011;20658;45.630;8.886;2023-03-01T02:25:06;60.42;;;36.85;;
34405;SDS011;20658;45.630;8.886;2023-03-01T02:27:58;59.92;;;37.42;;
34405;SDS011;20658;45.630;8.886;2023-03-01T02:33:37;56.63;;;34.63;;
34405;SDS011;20658;45.630;8.886;2023-03-01T02:36:12;57.65;;;33.60;;
34405;SDS011;20658;45.630;8.886;2023-03-01T02:38:51;51.13;;;31.92;;
34405;SDS011;20658;45.630;8.886;2023-03-01T02:41:29;56.40;;;33.53;;
34405;SDS011;20658;45.630;8.886;2023-03-01T02:44:07;52.30;;;33.90;;
34405;SDS011;20658;45.630;8.886;2023-03-01T02:46:43;52.50;;;32.17;;
34405;SDS011;20658;45.630;8.886;2023-03-01T02:49:20;49.05;;;32.20;;
34405;SDS011;20658;45.630;8.886;2023-03-01T02:55:03;56.22;;;33.83;;
34405;SDS011;20658;45.630;8.886;2023-03-01T02:57:42;52.75;;;32.85;;
34405;SDS011;20658;45.630;8.886;2023-03-01T03:00:19;55.63;;;33.72;;
34405;SDS011;20658;45.630;8.886;2023-03-01T03:02:58;50.42;;;32.47;;
34405;SDS011;20658;45.630;8.886;2023-03-01T03:05:32;55.92;;;35.03;;
34405;SDS011;20658;45.630;8.886;2023-03-01T03:08:05;54.03;;;35.85;;
34405;SDS011;20658;45.630;8.886;2023-03-01T03:10:40;51.55;;;32.35;;
34405;SDS011;20658;45.630;8.886;2023-03-01T03:13:14;53.88;;;33.53;;
34405;SDS011;20658;45.630;8.886;2023-03-01T03:15:43;53.47;;;32.40;;
34405;SDS011;20658;45.630;8.886;2023-03-01T03:18:18;49.08;;;32.85;;
34405;SDS011;20658;45.630;8.886;2023-03-01T03:20:51;51.00;;;33.72;;
34405;SDS011;20658;45.630;8.886;2023-03-01T03:23:25;55.20;;;32.40;;
34405;SDS011;20658;45.630;8.886;2023-03-01T03:26:00;49.83;;;32.17;;
34405;SDS011;20658;45.630;8.886;2023-03-01T03:28:35;52.85;;;33.15;;
34405;SDS011;20658;45.630;8.886;2023-03-01T03:31:11;49.22;;;33.10;;
34405;SDS011;20658;45.630;8.886;2023-03-01T03:33:45;54.33;;;35.67;;
34405;SDS011;20658;45.630;8.886;2023-03-01T03:36:20;55.65;;;35.33;;
34405;SDS011;20658;45.630;8.886;2023-03-01T03:38:55;53.97;;;34.63;;
34405;SDS011;20658;45.630;8.886;2023-03-01T03:41:28;54.63;;;34.10;;
34405;SDS011;20658;45.630;8.886;2023-03-01T03:44:02;50.15;;;33.38;;
34405;SDS011;20658;45.630;8.886;2023-03-01T03:46:35;50.65;;;33.40;;
34405;SDS011;20658;45.630;8.886;2023-03-01T03:49:10;52.00;;;33.28;;
34405;SDS011;20658;45.630;8.886;2023-03-01T03:51:44;53.50;;;33.42;;
34405;SDS011;20658;45.630;8.886;2023-03-01T03:54:18;48.10;;;32.38;;
34405;SDS011;20658;45.630;8.886;2023-03-01T03:56:51;53.28;;;31.60;;
34405;SDS011;20658;45.630;8.886;2023-03-01T03:59:25;48.63;;;32.25;;
34405;SDS011;20658;45.630;8.886;2023-03-01T04:01:58;52.03;;;31.73;;
34405;SDS011;20658;45.630;8.886;2023-03-01T04:04:33;52.95;;;32.80;;
34405;SDS011;20658;45.630;8.886;2023-03-01T04:07:07;52.60;;;32.55;;
34405;SDS011;20658;45.630;8.886;2023-03-01T04:09:40;49.90;;;32.00;;
34405;SDS011;20658;45.630;8.886;2023-03-01T04:12:09;46.75;;;31.35;;
34405;SDS011;20658;45.630;8.886;2023-03-01T04:14:43;51.85;;;31.92;;
34405;SDS011;20658;45.630;8.886;2023-03-01T04:17:16;55.13;;;33.58;;
34405;SDS011;20658;45.630;8.886;2023-03-01T04:19:51;51.95;;;32.95;;
34405;SDS011;20658;45.630;8.886;2023-03-01T04:22:20;51.38;;;32.00;;
34405;SDS011;20658;45.630;8.886;2023-03-01T04:24:53;46.65;;;30.50;;
34405;SDS011;20658;45.630;8.886;2023-03-01T04:27:28;53.08;;;32.83;;
34405;SDS011;20658;45.630;8.886;2023-03-01T04:30:01;49.72;;;31.15;;
34405;SDS011;20658;45.630;8.886;2023-03-01T04:32:36;52.22;;;31.33;;
34405;SDS011;20658;45.630;8.886;2023-03-01T04:35:11;51.25;;;31.25;;
34405;SDS011;20658;45.630;8.886;2023-03-01T04:37:44;51.00;;;30.80;;
34405;SDS011;20658;45.630;8.886;2023-03-01T04:40:12;49.33;;;32.17;;
34405;SDS011;20658;45.630;8.886;2023-03-01T04:42:47;48.47;;;30.85;;
34405;SDS011;20658;45.630;8.886;2023-03-01T04:45:20;53.10;;;33.10;;
34405;SDS011;20658;45.630;8.886;2023-03-01T04:47:54;50.65;;;33.40;;
34405;SDS011;20658;45.630;8.886;2023-03-01T04:50:30;52.33;;;31.67;;
34405;SDS011;20658;45.630;8.886;2023-03-01T04:53:04;53.63;;;31.60;;
34405;SDS011;20658;45.630;8.886;2023-03-01T04:55:37;49.05;;;31.02;;
34405;SDS011;20658;45.630;8.886;2023-03-01T04:58:11;49.22;;;32.28;;
34405;SDS011;20658;45.630;8.886;2023-03-01T05:00:45;54.58;;;32.72;;
34405;SDS011;20658;45.630;8.886;2023-03-01T05:03:19;51.70;;;33.15;;
34405;SDS011;20658;45.630;8.886;2023-03-01T05:05:58;48.75;;;30.85;;
34405;SDS011;20658;45.630;8.886;2023-03-01T05:08:31;49.25;;;31.73;;
34405;SDS011;20658;45.630;8.886;2023-03-01T05:11:18;52.58;;;32.00;;
34405;SDS011;20658;45.630;8.886;2023-03-01T05:13:52;50.35;;;30.77;;
34405;SDS011;20658;45.630;8.886;2023-03-01T05:16:26;51.90;;;33.40;;
34405;SDS011;20658;45.630;8.886;2023-03-01T05:19:02;49.50;;;31.10;;
34405;SDS011;20658;45.630;8.886;2023-03-01T05:21:43;53.65;;;32.90;;
34405;SDS011;20658;45.630;8.886;2023-03-01T05:24:34;55.70;;;33.33;;
34405;SDS011;20658;45.630;8.886;2023-03-01T05:27:08;56.92;;;34.22;;
34405;SDS011;20658;45.630;8.886;2023-03-01T05:29:41;55.22;;;32.22;;
34405;SDS011;20658;45.630;8.886;2023-03-01T05:32:15;53.05;;;32.72;;
34405;SDS011;20658;45.630;8.886;2023-03-01T05:34:43;53.92;;;32.45;;
34405;SDS011;20658;45.630;8.886;2023-03-01T05:37:19;54.65;;;33.25;;
34405;SDS011;20658;45.630;8.886;2023-03-01T05:39:52;53.65;;;32.15;;
34405;SDS011;20658;45.630;8.886;2023-03-01T05:42:25;50.47;;;31.02;;
34405;SDS011;20658;45.630;8.886;2023-03-01T05:45:01;52.90;;;34.38;;
34405;SDS011;20658;45.630;8.886;2023-03-01T05:47:34;61.75;;;34.25;;
34405;SDS011;20658;45.630;8.886;2023-03-01T05:50:09;52.65;;;32.85;;
34405;SDS011;20658;45.630;8.886;2023-03-01T05:52:46;49.85;;;31.63;;
34405;SDS011;20658;45.630;8.886;2023-03-01T05:55:22;50.83;;;32.15;;
34405;SDS011;20658;45.630;8.886;2023-03-01T05:57:57;50.30;;;30.95;;
34405;SDS011;20658;45.630;8.886;2023-03-01T06:00:32;56.40;;;33.10;;
34405;SDS011;20658;45.630;8.886;2023-03-01T06:03:06;48.92;;;31.35;;
34405;SDS011;20658;45.630;8.886;2023-03-01T06:05:39;51.78;;;32.47;;
34405;SDS011;20658;45.630;8.886;2023-03-01T06:08:10;56.80;;;33.30;;
34405;SDS011;20658;45.630;8.886;2023-03-01T06:10:44;51.50;;;32.53;;
34405;SDS011;20658;45.630;8.886;2023-03-01T06:13:19;52.67;;;32.28;;
34405;SDS011;20658;45.630;8.886;2023-03-01T06:15:54;54.40;;;33.35;;
34405;SDS011;20658;45.630;8.886;2023-03-01T06:18:27;55.67;;;34.17;;
34405;SDS011;20658;45.630;8.886;2023-03-01T06:21:00;55.70;;;34.88;;
34405;SDS011;20658;45.630;8.886;2023-03-01T06:23:35;51.15;;;32.55;;
34405;SDS011;20658;45.630;8.886;2023-03-01T06:26:08;53.33;;;34.45;;
34405;SDS011;20658;45.630;8.886;2023-03-01T06:28:42;60.53;;;35.67;;
34405;SDS011;20658;45.630;8.886;2023-03-01T06:31:17;58.15;;;33.70;;
34405;SDS011;20658;45.630;8.886;2023-03-01T06:33:50;55.63;;;36.40;;
34405;SDS011;20658;45.630;8.886;2023-03-01T06:36:23;55.33;;;36.00;;
34405;SDS011;20658;45.630;8.886;2023-03-01T06:38:58;57.72;;;37.65;;
34405;SDS011;20658;45.630;8.886;2023-03-01T06:41:31;61.00;;;38.28;;
34405;SDS011;20658;45.630;8.886;2023-03-01T06:44:05;65.45;;;40.78;;
34405;SDS011;20658;45.630;8.886;2023-03-01T06:46:39;67.35;;;40.22;;
34405;SDS011;20658;45.630;8.886;2023-03-01T06:49:12;62.60;;;38.28;;
34405;SDS011;20658;45.630;8.886;2023-03-01T06:51:47;61.97;;;38.95;;
34405;SDS011;20658;45.630;8.886;2023-03-01T06:54:22;61.75;;;38.17;;
34405;SDS011;20658;45.630;8.886;2023-03-01T06:56:56;60.67;;;37.40;;
34405;SDS011;20658;45.630;8.886;2023-03-01T06:59:29;67.32;;;40.55;;
34405;SDS011;20658;45.630;8.886;2023-03-01T07:02:02;69.45;;;40.13;;
34405;SDS011;20658;45.630;8.886;2023-03-01T07:04:36;70.70;;;40.45;;
34405;SDS011;20658;45.630;8.886;2023-03-01T07:07:09;69.13;;;41.83;;
34405;SDS011;20658;45.630;8.886;2023-03-01T07:09:44;60.80;;;38.15;;
34405;SDS011;20658;45.630;8.886;2023-03-01T07:12:18;58.63;;;37.63;;
34405;SDS011;20658;45.630;8.886;2023-03-01T07:14:51;59.95;;;34.78;;
34405;SDS011;20658;45.630;8.886;2023-03-01T07:17:24;57.05;;;33.63;;
34405;SDS011;20658;45.630;8.886;2023-03-01T07:19:58;56.42;;;33.50;;
34405;SDS011;20658;45.630;8.886;2023-03-01T07:22:31;59.25;;;36.70;;
34405;SDS011;20658;45.630;8.886;2023-03-01T07:25:06;60.85;;;36.55;;
34405;SDS011;20658;45.630;8.886;2023-03-01T07:27:40;58.10;;;34.92;;
34405;SDS011;20658;45.630;8.886;2023-03-01T07:30:14;67.07;;;36.15;;
34405;SDS011;20658;45.630;8.886;2023-03-01T07:32:48;59.40;;;35.53;;
34405;SDS011;20658;45.630;8.886;2023-03-01T07:35:21;59.00;;;36.10;;
34405;SDS011;20658;45.630;8.886;2023-03-01T07:37:55;61.97;;;39.92;;
34405;SDS011;20658;45.630;8.886;2023-03-01T07:40:30;75.97;;;48.15;;
34405;SDS011;20658;45.630;8.886;2023-03-01T07:43:03;83.15;;;51.30;;
34405;SDS011;20658;45.630;8.886;2023-03-01T07:45:37;84.82;;;50.90;;
34405;SDS011;20658;45.630;8.886;2023-03-01T07:48:10;80.45;;;51.63;;
34405;SDS011;20658;45.630;8.886;2023-03-01T07:50:43;84.53;;;52.88;;
34405;SDS011;20658;45.630;8.886;2023-03-01T07:53:17;75.72;;;49.55;;
34405;SDS011;20658;45.630;8.886;2023-03-01T07:55:51;80.55;;;50.65;;
34405;SDS011;20658;45.630;8.886;2023-03-01T07:58:34;80.55;;;47.72;;
34405;SDS011;20658;45.630;8.886;2023-03-01T08:01:08;92.80;;;52.40;;
34405;SDS011;20658;45.630;8.886;2023-03-01T08:03:43;90.40;;;52.25;;
34405;SDS011;20658;45.630;8.886;2023-03-01T08:06:16;118.40;;;49.78;;
34405;SDS011;20658;45.630;8.886;2023-03-01T08:08:50;84.20;;;50.10;;
34405;SDS011;20658;45.630;8.886;2023-03-01T08:11:27;82.55;;;46.45;;
34405;SDS011;20658;45.630;8.886;2023-03-01T08:14:01;80.00;;;45.65;;
34405;SDS011;20658;45.630;8.886;2023-03-01T08:16:35;81.70;;;45.38;;
34405;SDS011;20658;45.630;8.886;2023-03-01T08:19:09;78.22;;;43.42;;
34405;SDS011;20658;45.630;8.886;2023-03-01T08:21:44;69.97;;;43.58;;
34405;SDS011;20658;45.630;8.886;2023-03-01T08:24:17;84.45;;;47.70;;
34405;SDS011;20658;45.630;8.886;2023-03-01T08:26:52;73.20;;;44.08;;
34405;SDS011;20658;45.630;8.886;2023-03-01T08:29:25;71.35;;;43.85;;
34405;SDS011;20658;45.630;8.886;2023-03-01T08:31:59;69.90;;;44.55;;
34405;SDS011;20658;45.630;8.886;2023-03-01T08:34:32;66.78;;;41.15;;
34405;SDS011;20658;45.630;8.886;2023-03-01T08:37:06;144.25;;;48.20;;
34405;SDS011;20658;45.630;8.886;2023-03-01T08:39:41;63.67;;;39.78;;
34405;SDS011;20658;45.630;8.886;2023-03-01T08:42:15;63.20;;;41.53;;
34405;SDS011;20658;45.630;8.886;2023-03-01T08:44:48;98.75;;;43.50;;
34405;SDS011;20658;45.630;8.886;2023-03-01T08:47:22;73.03;;;40.38;;
34405;SDS011;20658;45.630;8.886;2023-03-01T08:49:55;60.05;;;37.47;;
34405;SDS011;20658;45.630;8.886;2023-03-01T08:52:28;49.78;;;31.23;;
34405;SDS011;20658;45.630;8.886;2023-03-01T08:55:02;48.88;;;32.72;;
34405;SDS011;20658;45.630;8.886;2023-03-01T08:57:38;48.30;;;31.13;;
34405;SDS011;20658;45.630;8.886;2023-03-01T09:00:11;43.22;;;24.90;;
34405;SDS011;20658;45.630;8.886;2023-03-01T09:02:47;41.60;;;25.17;;
34405;SDS011;20658;45.630;8.886;2023-03-01T09:05:20;39.78;;;25.77;;
34405;SDS011;20658;45.630;8.886;2023-03-01T09:07:53;46.60;;;22.70;;
34405;SDS011;20658;45.630;8.886;2023-03-01T09:10:26;35.83;;;21.52;;
34405;SDS011;20658;45.630;8.886;2023-03-01T09:13:01;38.92;;;20.85;;
34405;SDS011;20658;45.630;8.886;2023-03-01T09:15:36;31.98;;;20.02;;
34405;SDS011;20658;45.630;8.886;2023-03-01T09:18:09;36.05;;;21.15;;
34405;SDS011;20658;45.630;8.886;2023-03-01T09:20:42;38.38;;;20.48;;
34405;SDS011;20658;45.630;8.886;2023-03-01T09:23:16;33.28;;;19.88;;
34405;SDS011;20658;45.630;8.886;2023-03-01T09:25:49;38.35;;;20.63;;
34405;SDS011;20658;45.630;8.886;2023-03-01T09:28:24;31.80;;;18.80;;
34405;SDS011;20658;45.630;8.886;2023-03-01T09:30:57;28.02;;;16.15;;
34405;SDS011;20658;45.630;8.886;2023-03-01T09:33:32;28.27;;;16.73;;
34405;SDS011;20658;45.630;8.886;2023-03-01T09:36:06;29.38;;;17.08;;
34405;SDS011;20658;45.630;8.886;2023-03-01T09:38:44;29.92;;;18.13;;
34405;SDS011;20658;45.630;8.886;2023-03-01T09:41:22;31.70;;;17.80;;
34405;SDS011;20658;45.630;8.886;2023-03-01T09:44:27;32.10;;;17.55;;
34405;SDS011;20658;45.630;8.886;2023-03-01T09:47:09;31.77;;;18.15;;
34405;SDS011;20658;45.630;8.886;2023-03-01T09:49:52;31.75;;;17.35;;
34405;SDS011;20658;45.630;8.886;2023-03-01T09:52:36;27.23;;;16.08;;
34405;SDS011;20658;45.630;8.886;2023-03-01T09:55:15;28.58;;;17.60;;
34405;SDS011;20658;45.630;8.886;2023-03-01T09:57:55;33.72;;;18.77;;
34405;SDS011;20658;45.630;8.886;2023-03-01T10:00:38;28.02;;;16.75;;
34405;SDS011;20658;45.630;8.886;2023-03-01T10:03:16;31.13;;;17.55;;
34405;SDS011;20658;45.630;8.886;2023-03-01T10:05:59;26.85;;;16.02;;
34405;SDS011;20658;45.630;8.886;2023-03-01T10:08:38;27.98;;;17.35;;
34405;SDS011;20658;45.630;8.886;2023-03-01T10:11:19;28.05;;;15.75;;
34405;SDS011;20658;45.630;8.886;2023-03-01T10:13:56;29.15;;;16.35;;
34405;SDS011;20658;45.630;8.886;2023-03-01T10:16:40;30.33;;;18.00;;
34405;SDS011;20658;45.630;8.886;2023-03-01T10:19:22;33.83;;;17.77;;
34405;SDS011;20658;45.630;8.886;2023-03-01T10:22:02;30.13;;;17.23;;
34405;SDS011;20658;45.630;8.886;2023-03-01T10:24:45;30.48;;;18.17;;
34405;SDS011;20658;45.630;8.886;2023-03-01T10:27:19;30.55;;;17.30;;
34405;SDS011;20658;45.630;8.886;2023-03-01T10:29:58;32.95;;;17.90;;
34405;SDS011;20658;45.630;8.886;2023-03-01T10:32:40;34.35;;;19.15;;
34405;SDS011;20658;45.630;8.886;2023-03-01T10:35:17;34.70;;;20.25;;
34405;SDS011;20658;45.630;8.886;2023-03-01T10:38:02;31.10;;;19.38;;
34405;SDS011;20658;45.630;8.886;2023-03-01T10:40:49;34.92;;;20.45;;
34405;SDS011;20658;45.630;8.886;2023-03-01T10:43:24;36.72;;;21.20;;
34405;SDS011;20658;45.630;8.886;2023-03-01T10:46:02;35.05;;;22.67;;
34405;SDS011;20658;45.630;8.886;2023-03-01T10:49:12;35.05;;;20.75;;
34405;SDS011;20658;45.630;8.886;2023-03-01T10:51:49;31.65;;;19.83;;
34405;SDS011;20658;45.630;8.886;2023-03-01T10:54:25;29.15;;;17.45;;
34405;SDS011;20658;45.630;8.886;2023-03-01T10:57:03;31.58;;;16.60;;
34405;SDS011;20658;45.630;8.886;2023-03-01T10:59:38;36.40;;;18.52;;
34405;SDS011;20658;45.630;8.886;2023-03-01T11:02:20;39.53;;;19.45;;
34405;SDS011;20658;45.630;8.886;2023-03-01T11:05:03;32.47;;;19.98;;
34405;SDS011;20658;45.630;8.886;2023-03-01T11:07:52;32.38;;;18.30;;
34405;SDS011;20658;45.630;8.886;2023-03-01T11:10:28;32.00;;;19.77;;
34405;SDS011;20658;45.630;8.886;2023-03-01T11:13:08;29.58;;;18.58;;
34405;SDS011;20658;45.630;8.886;2023-03-01T11:15:58;33.38;;;20.33;;
34405;SDS011;20658;45.630;8.886;2023-03-01T11:18:32;35.22;;;22.17;;
34405;SDS011;20658;45.630;8.886;2023-03-01T11:21:07;33.97;;;19.55;;
34405;SDS011;20658;45.630;8.886;2023-03-01T11:23:40;32.13;;;20.02;;
34405;SDS011;20658;45.630;8.886;2023-03-01T11:26:16;33.90;;;19.98;;
34405;SDS011;20658;45.630;8.886;2023-03-01T11:28:53;29.73;;;18.92;;
34405;SDS011;20658;45.630;8.886;2023-03-01T11:31:31;32.00;;;21.08;;
34405;SDS011;20658;45.630;8.886;2023-03-01T11:34:09;29.75;;;18.33;;
34405;SDS011;20658;45.630;8.886;2023-03-01T11:39:27;29.02;;;18.63;;
34405;SDS011;20658;45.630;8.886;2023-03-01T11:42:13;27.50;;;17.67;;
34405;SDS011;20658;45.630;8.886;2023-03-01T11:44:52;31.10;;;18.30;;
34405;SDS011;20658;45.630;8.886;2023-03-01T11:47:33;29.17;;;18.45;;
34405;SDS011;20658;45.630;8.886;2023-03-01T11:50:34;29.00;;;20.08;;
34405;SDS011;20658;45.630;8.886;2023-03-01T11:53:27;29.77;;;19.35;;
34405;SDS011;20658;45.630;8.886;2023-03-01T11:56:22;30.35;;;18.40;;
34405;SDS011;20658;45.630;8.886;2023-03-01T11:59:13;28.63;;;18.63;;
34405;SDS011;20658;45.630;8.886;2023-03-01T12:02:19;27.15;;;17.45;;
34405;SDS011;20658;45.630;8.886;2023-03-01T12:05:24;27.50;;;17.13;;
34405;SDS011;20658;45.630;8.886;2023-03-01T12:08:26;29.60;;;18.63;;
34405;SDS011;20658;45.630;8.886;2023-03-01T12:11:10;28.70;;;18.23;;
34405;SDS011;20658;45.630;8.886;2023-03-01T12:14:04;29.58;;;19.08;;
34405;SDS011;20658;45.630;8.886;2023-03-01T12:17:03;28.30;;;18.48;;
34405;SDS011;20658;45.630;8.886;2023-03-01T12:20:09;27.40;;;18.20;;
34405;SDS011;20658;45.630;8.886;2023-03-01T12:22:57;33.13;;;20.52;;
34405;SDS011;20658;45.630;8.886;2023-03-01T12:26:08;32.05;;;20.48;;
34405;SDS011;20658;45.630;8.886;2023-03-01T12:29:03;29.52;;;19.70;;
34405;SDS011;20658;45.630;8.886;2023-03-01T12:32:00;32.78;;;20.10;;
34405;SDS011;20658;45.630;8.886;2023-03-01T12:34:50;32.10;;;19.35;;
34405;SDS011;20658;45.630;8.886;2023-03-01T12:37:39;32.25;;;20.48;;
34405;SDS011;20658;45.630;8.886;2023-03-01T12:40:38;30.65;;;20.67;;
34405;SDS011;20658;45.630;8.886;2023-03-01T12:43:36;34.50;;;20.60;;
34405;SDS011;20658;45.630;8.886;2023-03-01T12:46:28;31.85;;;20.95;;
34405;SDS011;20658;45.630;8.886;2023-03-01T12:49:24;29.95;;;18.27;;
34405;SDS011;20658;45.630;8.886;2023-03-01T12:52:07;29.67;;;20.10;;
34405;SDS011;20658;45.630;8.886;2023-03-01T12:54:46;30.08;;;19.17;;
34405;SDS011;20658;45.630;8.886;2023-03-01T12:57:24;31.55;;;20.50;;
34405;SDS011;20658;45.630;8.886;2023-03-01T13:00:15;31.35;;;18.55;;
34405;SDS011;20658;45.630;8.886;2023-03-01T13:03:00;29.00;;;18.45;;
34405;SDS011;20658;45.630;8.886;2023-03-01T13:05:56;30.10;;;18.63;;
34405;SDS011;20658;45.630;8.886;2023-03-01T13:08:41;29.55;;;18.52;;
34405;SDS011;20658;45.630;8.886;2023-03-01T13:11:21;31.80;;;21.48;;
34405;SDS011;20658;45.630;8.886;2023-03-01T13:14:08;34.08;;;20.63;;
34405;SDS011;20658;45.630;8.886;2023-03-01T13:20:11;29.13;;;19.52;;
34405;SDS011;20658;45.630;8.886;2023-03-01T13:22:48;31.10;;;19.67;;
34405;SDS011;20658;45.630;8.886;2023-03-01T13:25:42;31.20;;;20.08;;
34405;SDS011;20658;45.630;8.886;2023-03-01T13:28:51;31.85;;;19.40;;
34405;SDS011;20658;45.630;8.886;2023-03-01T13:34:39;28.10;;;18.75;;
34405;SDS011;20658;45.630;8.886;2023-03-01T13:37:34;31.02;;;20.02;;
34405;SDS011;20658;45.630;8.886;2023-03-01T13:43:28;33.40;;;20.60;;
34405;SDS011;20658;45.630;8.886;2023-03-01T13:46:07;35.75;;;20.85;;
34405;SDS011;20658;45.630;8.886;2023-03-01T13:48:45;36.00;;;22.17;;
34405;SDS011;20658;45.630;8.886;2023-03-01T13:51:23;31.38;;;20.50;;
34405;SDS011;20658;45.630;8.886;2023-03-01T13:54:00;33.25;;;20.45;;
34405;SDS011;20658;45.630;8.886;2023-03-01T13:56:35;30.95;;;19.35;;
34405;SDS011;20658;45.630;8.886;2023-03-01T13:59:13;29.58;;;19.55;;
34405;SDS011;20658;45.630;8.886;2023-03-01T14:01:51;32.22;;;20.67;;
34405;SDS011;20658;45.630;8.886;2023-03-01T14:04:26;34.25;;;20.83;;
34405;SDS011;20658;45.630;8.886;2023-03-01T14:07:09;32.47;;;20.98;;
34405;SDS011;20658;45.630;8.886;2023-03-01T14:09:46;35.65;;;21.35;;
34405;SDS011;20658;45.630;8.886;2023-03-01T14:12:26;35.45;;;23.25;;
34405;SDS011;20658;45.630;8.886;2023-03-01T14:15:14;35.03;;;21.88;;
34405;SDS011;20658;45.630;8.886;2023-03-01T14:17:55;39.40;;;29.73;;
34405;SDS011;20658;45.630;8.886;2023-03-01T14:20:38;43.95;;;35.70;;
34405;SDS011;20658;45.630;8.886;2023-03-01T14:23:17;36.22;;;23.65;;
34405;SDS011;20658;45.630;8.886;2023-03-01T14:25:55;30.20;;;21.00;;
34405;SDS011;20658;45.630;8.886;2023-03-01T14:28:30;60.00;;;53.35;;
34405;SDS011;20658;45.630;8.886;2023-03-01T14:34:16;34.88;;;23.27;;
34405;SDS011;20658;45.630;8.886;2023-03-01T14:36:52;33.75;;;23.65;;
34405;SDS011;20658;45.630;8.886;2023-03-01T14:39:26;32.60;;;21.63;;
34405;SDS011;20658;45.630;8.886;2023-03-01T14:42:01;36.05;;;22.23;;
34405;SDS011;20658;45.630;8.886;2023-03-01T14:44:37;34.40;;;21.30;;
34405;SDS011;20658;45.630;8.886;2023-03-01T14:47:11;33.03;;;20.92;;
34405;SDS011;20658;45.630;8.886;2023-03-01T14:49:48;35.30;;;23.52;;
34405;SDS011;20658;45.630;8.886;2023-03-01T14:52:31;36.13;;;21.55;;
34405;SDS011;20658;45.630;8.886;2023-03-01T14:55:13;45.05;;;24.27;;
34405;SDS011;20658;45.630;8.886;2023-03-01T14:57:52;32.70;;;21.67;;
34405;SDS011;20658;45.630;8.886;2023-03-01T15:00:26;37.97;;;22.27;;
34405;SDS011;20658;45.630;8.886;2023-03-01T15:03:04;42.00;;;22.02;;
34405;SDS011;20658;45.630;8.886;2023-03-01T15:05:44;32.90;;;21.27;;
34405;SDS011;20658;45.630;8.886;2023-03-01T15:08:18;35.58;;;20.88;;
34405;SDS011;20658;45.630;8.886;2023-03-01T15:10:56;35.25;;;21.95;;
34405;SDS011;20658;45.630;8.886;2023-03-01T15:13:34;33.83;;;21.25;;
34405;SDS011;20658;45.630;8.886;2023-03-01T15:16:09;33.05;;;22.65;;
34405;SDS011;20658;45.630;8.886;2023-03-01T15:18:44;32.78;;;21.63;;
34405;SDS011;20658;45.630;8.886;2023-03-01T15:21:20;35.33;;;22.40;;
34405;SDS011;20658;45.630;8.886;2023-03-01T15:23:56;36.17;;;22.70;;
34405;SDS011;20658;45.630;8.886;2023-03-01T15:26:43;38.22;;;24.70;;
34405;SDS011;20658;45.630;8.886;2023-03-01T15:29:27;38.65;;;25.73;;
34405;SDS011;20658;45.630;8.886;2023-03-01T15:32:05;38.55;;;25.00;;
34405;SDS011;20658;45.630;8.886;2023-03-01T15:34:57;40.50;;;25.98;;
34405;SDS011;20658;45.630;8.886;2023-03-01T15:37:36;36.72;;;24.08;;
34405;SDS011;20658;45.630;8.886;2023-03-01T15:40:20;37.67;;;23.63;;
34405;SDS011;20658;45.630;8.886;2023-03-01T15:43:03;37.25;;;23.55;;